createdAt,value
2018-12-03T00:00:57.355Z,4.40
2018-12-03T00:01:57.364Z,4.44
2018-12-03T00:02:57.376Z,4.41
2018-12-03T00:03:57.382Z,4.34
2018-12-03T00:04:57.392Z,4.50
2018-12-03T00:05:57.401Z,4.44
2018-12-03T00:06:57.411Z,4.30
2018-12-03T00:07:57.423Z,4.34
2018-12-03T00:08:57.430Z,4.41
2018-12-03T00:09:57.436Z,4.44
2018-12-03T00:10:57.447Z,4.34
2018-12-03T00:11:57.457Z,4.42
2018-12-03T00:12:57.465Z,4.40
2018-12-03T00:13:57.476Z,4.44
2018-12-03T00:14:57.489Z,4.37
2018-12-03T00:15:57.496Z,4.33
2018-12-03T00:16:57.502Z,4.34
2018-12-03T00:17:57.511Z,4.41
2018-12-03T00:18:57.522Z,4.47
2018-12-03T00:19:57.533Z,4.40
2018-12-03T00:20:57.544Z,4.45
2018-12-03T00:21:57.550Z,4.40
2018-12-03T00:22:57.560Z,4.44
2018-12-03T00:23:57.569Z,4.45
2018-12-03T00:24:57.578Z,4.42
2018-12-03T00:25:57.589Z,4.34
2018-12-03T00:26:57.597Z,4.44
2018-12-03T00:27:57.607Z,4.45
2018-12-03T00:28:57.615Z,4.42
2018-12-03T00:29:57.624Z,4.37
2018-12-03T00:30:57.633Z,4.44
2018-12-03T00:31:57.646Z,4.44
2018-12-03T00:32:57.654Z,4.47
2018-12-03T00:33:57.661Z,4.44
2018-12-03T00:34:57.673Z,4.41
2018-12-03T00:35:57.684Z,4.36
2018-12-03T00:36:57.694Z,4.36
2018-12-03T00:37:57.703Z,4.37
2018-12-03T00:38:57.710Z,4.34
2018-12-03T00:39:57.721Z,4.37
2018-12-03T00:40:57.732Z,4.40
2018-12-03T00:41:57.740Z,4.36
2018-12-03T00:42:57.751Z,4.27
2018-12-03T00:43:57.761Z,4.26
2018-12-03T00:44:57.770Z,4.24
2018-12-03T00:45:57.778Z,4.27
2018-12-03T00:46:57.791Z,4.30
2018-12-03T00:47:57.796Z,4.29
2018-12-03T00:48:57.809Z,4.41
2018-12-03T00:49:57.814Z,4.22
2018-12-03T00:50:57.825Z,4.20
2018-12-03T00:51:57.836Z,4.23
2018-12-03T00:52:57.845Z,4.23
2018-12-03T00:53:57.854Z,4.29
2018-12-03T00:54:57.861Z,4.23
2018-12-03T00:55:57.875Z,4.30
2018-12-03T00:56:57.883Z,4.22
2018-12-03T00:57:57.895Z,4.24
2018-12-03T00:58:57.905Z,4.27
2018-12-03T00:59:57.913Z,4.33
2018-12-03T01:00:57.925Z,4.22
2018-12-03T01:01:57.930Z,4.26
2018-12-03T01:02:57.942Z,4.27
2018-12-03T01:03:57.949Z,4.40
2018-12-03T01:04:57.960Z,4.40
2018-12-03T01:05:57.967Z,4.23
2018-12-03T01:06:57.977Z,4.40
2018-12-03T01:07:57.989Z,4.33
2018-12-03T01:08:57.996Z,4.37
2018-12-03T01:09:58.010Z,4.37
2018-12-03T01:10:58.015Z,4.41
2018-12-03T01:11:58.026Z,4.34
2018-12-03T01:12:58.037Z,4.44
2018-12-03T01:13:58.043Z,4.33
2018-12-03T01:14:58.056Z,4.33
2018-12-03T01:15:58.062Z,4.36
2018-12-03T01:16:58.073Z,4.36
2018-12-03T01:17:58.081Z,4.42
2018-12-03T01:18:58.090Z,4.42
2018-12-03T01:19:58.100Z,4.27
2018-12-03T01:20:58.110Z,4.08
2018-12-03T01:21:58.119Z,4.22
2018-12-03T01:22:58.129Z,4.05
2018-12-03T01:23:58.138Z,4.11
2018-12-03T01:24:58.151Z,3.96
2018-12-03T01:25:58.158Z,4.02
2018-12-03T01:26:58.173Z,3.97
2018-12-03T01:27:58.175Z,3.98
2018-12-03T01:28:58.185Z,3.91
2018-12-03T01:29:58.196Z,3.98
2018-12-03T01:30:58.203Z,3.96
2018-12-03T01:31:58.212Z,3.97
2018-12-03T01:32:58.224Z,3.97
2018-12-03T01:33:58.229Z,3.98
2018-12-03T01:34:58.249Z,3.91
2018-12-03T01:35:58.249Z,3.91
2018-12-03T01:36:58.260Z,3.96
2018-12-03T01:37:58.269Z,4.04
2018-12-03T01:38:58.278Z,3.96
2018-12-03T01:39:58.287Z,4.09
2018-12-03T01:40:58.297Z,4.08
2018-12-03T01:41:58.307Z,4.09
2018-12-03T01:42:58.314Z,4.04
2018-12-03T01:43:58.324Z,4.08
2018-12-03T01:44:58.333Z,4.08
2018-12-03T01:45:58.342Z,4.11
2018-12-03T01:46:58.352Z,4.05
2018-12-03T01:47:58.361Z,4.09
2018-12-03T01:48:58.370Z,4.08
2018-12-03T01:49:58.379Z,4.12
2018-12-03T01:50:58.390Z,4.11
2018-12-03T01:51:58.403Z,4.06
2018-12-03T01:52:58.410Z,4.04
2018-12-03T01:53:58.420Z,4.09
2018-12-03T01:54:58.426Z,4.08
2018-12-03T01:55:58.436Z,4.06
2018-12-03T01:56:58.447Z,4.08
2018-12-03T01:57:58.456Z,4.02
2018-12-03T01:58:58.464Z,4.00
2018-12-03T01:59:58.474Z,3.96
2018-12-03T02:00:58.487Z,3.94
2018-12-03T02:01:58.491Z,3.91
2018-12-03T02:02:58.504Z,3.83
2018-12-03T02:03:58.512Z,3.86
2018-12-03T02:04:58.522Z,3.80
2018-12-03T02:05:58.532Z,3.87
2018-12-03T02:06:58.539Z,3.90
2018-12-03T02:07:58.549Z,3.90
2018-12-03T02:08:58.558Z,3.83
2018-12-03T02:09:58.567Z,3.84
2018-12-03T02:10:58.579Z,3.93
2018-12-03T02:11:58.588Z,3.83
2018-12-03T02:12:58.596Z,3.75
2018-12-03T02:13:58.604Z,3.73
2018-12-03T02:14:58.614Z,3.73
2018-12-03T02:15:58.624Z,3.75
2018-12-03T02:16:58.631Z,3.73
2018-12-03T02:17:58.640Z,3.73
2018-12-03T02:18:58.650Z,3.78
2018-12-03T02:19:58.658Z,3.75
2018-12-03T02:20:58.669Z,3.83
2018-12-03T02:21:58.675Z,3.93
2018-12-03T02:22:58.689Z,3.93
2018-12-03T02:23:58.694Z,3.98
2018-12-03T02:24:58.704Z,4.00
2018-12-03T02:25:58.712Z,4.00
2018-12-03T02:26:58.721Z,4.05
2018-12-03T02:27:58.730Z,4.00
2018-12-03T02:28:58.740Z,3.98
2018-12-03T02:29:58.749Z,4.00
2018-12-03T02:30:58.756Z,3.86
2018-12-03T02:31:58.766Z,3.97
2018-12-03T02:32:58.776Z,4.06
2018-12-03T02:33:58.784Z,4.09
2018-12-03T02:34:58.795Z,4.05
2018-12-03T02:35:58.802Z,4.08
2018-12-03T02:36:58.809Z,4.06
2018-12-03T02:37:58.820Z,4.11
2018-12-03T02:38:58.832Z,4.24
2018-12-03T02:39:58.836Z,4.36
2018-12-03T02:40:58.848Z,4.40
2018-12-03T02:41:58.854Z,4.45
2018-12-03T02:42:58.864Z,4.47
2018-12-03T02:43:58.872Z,4.54
2018-12-03T02:44:58.881Z,4.54
2018-12-03T02:45:58.892Z,4.59
2018-12-03T02:46:58.898Z,4.55
2018-12-03T02:47:58.911Z,4.62
2018-12-03T02:48:58.919Z,4.69
2018-12-03T02:49:58.928Z,4.75
2018-12-03T02:50:58.939Z,4.84
2018-12-03T02:51:58.945Z,4.78
2018-12-03T02:52:58.955Z,4.78
2018-12-03T02:53:58.960Z,4.75
2018-12-03T02:54:58.973Z,4.82
2018-12-03T02:55:58.979Z,4.84
2018-12-03T02:56:58.990Z,4.72
2018-12-03T02:57:58.999Z,4.65
2018-12-03T02:58:59.006Z,4.73
2018-12-03T02:59:59.017Z,4.69
2018-12-03T03:00:59.025Z,4.70
2018-12-03T03:01:59.036Z,4.70
2018-12-03T03:02:59.041Z,4.73
2018-12-03T03:03:59.050Z,4.70
2018-12-03T03:04:59.059Z,4.66
2018-12-03T03:05:59.068Z,4.67
2018-12-03T03:06:59.078Z,4.65
2018-12-03T03:07:59.086Z,4.47
2018-12-03T03:08:59.097Z,4.47
2018-12-03T03:09:59.106Z,4.55
2018-12-03T03:10:59.113Z,4.54
2018-12-03T03:11:59.149Z,4.54
2018-12-03T03:12:59.134Z,4.66
2018-12-03T03:13:59.139Z,4.58
2018-12-03T03:14:59.150Z,4.77
2018-12-03T03:15:59.158Z,4.72
2018-12-03T03:16:59.167Z,4.70
2018-12-03T03:17:59.182Z,4.70
2018-12-03T03:18:59.188Z,4.67
2018-12-03T03:19:59.200Z,4.67
2018-12-03T03:20:59.210Z,4.69
2018-12-03T03:21:59.216Z,4.42
2018-12-03T03:22:59.229Z,4.34
2018-12-03T03:23:59.237Z,4.24
2018-12-03T03:24:59.248Z,4.24
2018-12-03T03:25:59.252Z,4.29
2018-12-03T03:26:59.261Z,4.29
2018-12-03T03:27:59.272Z,4.32
2018-12-03T03:28:59.281Z,4.26
2018-12-03T03:29:59.291Z,4.24
2018-12-03T03:30:59.303Z,4.16
2018-12-03T03:31:59.309Z,4.11
2018-12-03T03:32:59.320Z,4.11
2018-12-03T03:33:59.328Z,4.09
2018-12-03T03:34:59.337Z,4.14
2018-12-03T03:35:59.348Z,4.08
2018-12-03T03:36:59.359Z,4.08
2018-12-03T03:37:59.363Z,4.08
2018-12-03T03:38:59.373Z,4.11
2018-12-03T03:39:59.385Z,4.05
2018-12-03T03:40:59.394Z,4.02
2018-12-03T03:41:59.401Z,4.06
2018-12-03T03:42:59.413Z,4.05
2018-12-03T03:43:59.420Z,3.94
2018-12-03T03:44:59.441Z,4.05
2018-12-03T03:45:59.440Z,4.02
2018-12-03T03:46:59.456Z,3.96
2018-12-03T03:47:59.457Z,3.90
2018-12-03T03:48:59.467Z,3.88
2018-12-03T03:49:59.476Z,3.98
2018-12-03T03:50:59.486Z,3.96
2018-12-03T03:51:59.496Z,4.02
2018-12-03T03:52:59.506Z,3.90
2018-12-03T03:53:59.513Z,3.97
2018-12-03T03:54:59.525Z,3.97
2018-12-03T03:55:59.540Z,3.96
2018-12-03T03:56:59.543Z,4.08
2018-12-03T03:57:59.554Z,3.93
2018-12-03T03:58:59.562Z,3.96
2018-12-03T03:59:59.572Z,3.94
2018-12-03T04:00:59.581Z,3.97
2018-12-03T04:01:59.589Z,4.00
2018-12-03T04:02:59.601Z,3.93
2018-12-03T04:03:59.613Z,4.05
2018-12-03T04:04:59.626Z,4.32
2018-12-03T04:05:59.627Z,4.29
2018-12-03T04:06:59.636Z,4.32
2018-12-03T04:07:59.656Z,4.36
2018-12-03T04:08:59.654Z,4.55
2018-12-03T04:09:59.664Z,4.67
2018-12-03T04:10:59.677Z,4.72
2018-12-03T04:11:59.686Z,4.70
2018-12-03T04:12:59.695Z,4.75
2018-12-03T04:13:59.700Z,4.52
2018-12-03T04:14:59.713Z,4.59
2018-12-03T04:15:59.723Z,4.51
2018-12-03T04:16:59.732Z,4.48
2018-12-03T04:17:59.742Z,4.48
2018-12-03T04:18:59.748Z,4.52
2018-12-03T04:19:59.757Z,4.65
2018-12-03T04:20:59.768Z,4.66
2018-12-03T04:21:59.778Z,4.67
2018-12-03T04:22:59.785Z,4.86
2018-12-03T04:23:59.797Z,4.80
2018-12-03T04:24:59.805Z,4.86
2018-12-03T04:25:59.813Z,4.92
2018-12-03T04:26:59.821Z,4.92
2018-12-03T04:27:59.832Z,4.99
2018-12-03T04:28:59.842Z,4.94
2018-12-03T04:29:59.851Z,4.97
2018-12-03T04:30:59.859Z,5.03
2018-12-03T04:31:59.870Z,5.24
2018-12-03T04:32:59.881Z,5.27
2018-12-03T04:33:59.958Z,5.33
2018-12-03T04:34:59.899Z,5.39
2018-12-03T04:35:59.909Z,5.27
2018-12-03T04:36:59.919Z,5.22
2018-12-03T04:37:59.926Z,5.22
2018-12-03T04:38:59.938Z,5.43
2018-12-03T04:39:59.948Z,5.39
2018-12-03T04:40:59.956Z,5.35
2018-12-03T04:41:59.961Z,5.36
2018-12-03T04:42:59.972Z,5.40
2018-12-03T04:43:59.985Z,5.30
2018-12-03T04:44:59.995Z,5.36
2018-12-03T04:46:00.005Z,5.33
2018-12-03T04:47:00.015Z,5.27
2018-12-03T04:48:00.108Z,5.20
2018-12-03T04:49:00.606Z,5.22
2018-12-03T04:50:00.038Z,5.18
2018-12-03T04:51:00.048Z,5.07
2018-12-03T04:52:00.058Z,5.06
2018-12-03T04:53:00.070Z,5.03
2018-12-03T04:54:00.079Z,5.06
2018-12-03T04:55:00.093Z,5.13
2018-12-03T04:56:00.099Z,5.13
2018-12-03T04:57:00.106Z,5.15
2018-12-03T04:58:00.116Z,5.09
2018-12-03T04:59:00.127Z,5.07
2018-12-03T05:00:00.141Z,5.12
2018-12-03T05:01:00.146Z,5.15
2018-12-03T05:02:00.153Z,5.07
2018-12-03T05:03:00.164Z,5.04
2018-12-03T05:04:00.176Z,5.04
2018-12-03T05:05:00.182Z,5.24
2018-12-03T05:06:00.193Z,5.27
2018-12-03T05:07:00.202Z,5.31
2018-12-03T05:08:00.211Z,5.33
2018-12-03T05:09:00.220Z,5.30
2018-12-03T05:10:00.229Z,5.07
2018-12-03T05:11:00.240Z,5.09
2018-12-03T05:12:00.247Z,5.04
2018-12-03T05:13:00.942Z,5.10
2018-12-03T05:14:00.268Z,5.18
2018-12-03T05:15:00.277Z,5.24
2018-12-03T05:16:00.288Z,5.18
2018-12-03T05:17:00.296Z,5.15
2018-12-03T05:18:00.310Z,5.24
2018-12-03T05:19:00.315Z,5.28
2018-12-03T05:20:00.326Z,5.31
2018-12-03T05:21:00.341Z,5.43
2018-12-03T05:22:00.354Z,5.43
2018-12-03T05:23:00.355Z,5.45
2018-12-03T05:24:04.314Z,5.42
2018-12-03T05:25:00.377Z,5.39
2018-12-03T05:26:00.384Z,5.36
2018-12-03T05:27:00.394Z,5.35
2018-12-03T05:28:00.404Z,5.38
2018-12-03T05:29:00.414Z,5.20
2018-12-03T05:30:00.422Z,5.18
2018-12-03T05:31:00.434Z,5.10
2018-12-03T05:32:00.442Z,5.10
2018-12-03T05:33:00.452Z,5.09
2018-12-03T05:34:00.461Z,5.10
2018-12-03T05:35:00.470Z,5.07
2018-12-03T05:36:00.479Z,5.09
2018-12-03T05:37:00.492Z,5.04
2018-12-03T05:38:00.502Z,5.13
2018-12-03T05:39:00.509Z,5.25
2018-12-03T05:40:00.520Z,5.24
2018-12-03T05:41:00.531Z,5.28
2018-12-03T05:42:00.537Z,5.24
2018-12-03T05:43:00.547Z,5.22
2018-12-03T05:44:00.557Z,5.15
2018-12-03T05:45:00.567Z,5.15
2018-12-03T05:46:00.574Z,5.15
2018-12-03T05:47:00.592Z,5.04
2018-12-03T05:48:00.597Z,5.03
2018-12-03T05:49:00.608Z,5.04
2018-12-03T05:50:00.614Z,5.06
2018-12-03T05:51:00.623Z,5.03
2018-12-03T05:52:00.633Z,5.00
2018-12-03T05:53:00.642Z,5.07
2018-12-03T05:54:00.652Z,5.03
2018-12-03T05:55:00.661Z,5.04
2018-12-03T05:56:00.669Z,5.06
2018-12-03T05:57:00.681Z,5.02
2018-12-03T05:58:00.689Z,5.03
2018-12-03T05:59:00.700Z,5.03
2018-12-03T06:00:00.709Z,5.10
2018-12-03T06:01:00.719Z,5.06
2018-12-03T06:02:00.729Z,5.04
2018-12-03T06:03:00.740Z,5.03
2018-12-03T06:04:00.747Z,5.02
2018-12-03T06:05:00.758Z,4.99
2018-12-03T06:06:00.767Z,5.04
2018-12-03T06:07:00.775Z,5.04
2018-12-03T06:08:00.788Z,5.13
2018-12-03T06:09:00.797Z,5.25
2018-12-03T06:10:00.806Z,5.31
2018-12-03T06:11:00.815Z,5.36
2018-12-03T06:12:00.826Z,5.35
2018-12-03T06:13:00.835Z,5.38
2018-12-03T06:14:00.842Z,5.31
2018-12-03T06:15:00.853Z,5.30
2018-12-03T06:16:00.863Z,5.39
2018-12-03T06:17:00.872Z,5.40
2018-12-03T06:18:00.886Z,5.46
2018-12-03T06:19:00.893Z,5.36
2018-12-03T06:20:00.901Z,5.36
2018-12-03T06:21:00.911Z,5.31
2018-12-03T06:22:00.924Z,5.31
2018-12-03T06:23:00.934Z,5.36
2018-12-03T06:24:00.941Z,5.35
2018-12-03T06:25:00.949Z,5.33
2018-12-03T06:26:00.957Z,5.33
2018-12-03T06:27:00.971Z,5.36
2018-12-03T06:28:00.984Z,5.43
2018-12-03T06:29:00.987Z,5.38
2018-12-03T06:30:00.998Z,5.43
2018-12-03T06:31:01.007Z,5.49
2018-12-03T06:32:01.017Z,5.54
2018-12-03T06:33:01.032Z,5.56
2018-12-03T06:34:01.035Z,5.56
2018-12-03T06:35:01.046Z,5.54
2018-12-03T06:36:01.057Z,5.51
2018-12-03T06:37:01.072Z,5.56
2018-12-03T06:38:01.078Z,5.56
2018-12-03T06:39:01.087Z,5.60
2018-12-03T06:40:01.097Z,5.49
2018-12-03T06:41:01.108Z,5.60
2018-12-03T06:42:01.114Z,5.64
2018-12-03T06:43:01.127Z,5.60
2018-12-03T06:44:01.134Z,5.61
2018-12-03T06:45:01.148Z,5.68
2018-12-03T06:46:01.156Z,5.68
2018-12-03T06:47:01.165Z,5.63
2018-12-03T06:48:01.175Z,5.60
2018-12-03T06:49:01.185Z,5.68
2018-12-03T06:50:01.194Z,5.60
2018-12-03T06:51:01.205Z,5.64
2018-12-03T06:52:01.216Z,5.63
2018-12-03T06:53:01.225Z,5.75
2018-12-03T06:54:01.279Z,5.58
2018-12-03T06:55:01.245Z,5.72
2018-12-03T06:56:01.256Z,5.65
2018-12-03T06:57:01.266Z,5.74
2018-12-03T06:58:01.276Z,5.72
2018-12-03T06:59:01.291Z,5.75
2018-12-03T07:00:01.297Z,5.75
2018-12-03T07:01:01.305Z,5.76
2018-12-03T07:02:01.314Z,5.65
2018-12-03T07:03:01.324Z,5.71
2018-12-03T07:04:01.339Z,5.78
2018-12-03T07:05:01.345Z,5.60
2018-12-03T07:06:01.356Z,5.54
2018-12-03T07:07:01.367Z,5.43
2018-12-03T07:08:01.377Z,5.43
2018-12-03T07:09:01.387Z,5.42
2018-12-03T07:10:01.401Z,5.40
2018-12-03T07:11:01.407Z,5.48
2018-12-03T07:12:01.415Z,5.38
2018-12-03T07:13:01.429Z,5.39
2018-12-03T07:14:01.436Z,5.39
2018-12-03T07:15:01.466Z,5.40
2018-12-03T07:16:01.458Z,5.40
2018-12-03T07:17:01.466Z,5.39
2018-12-03T07:18:01.476Z,5.42
2018-12-03T07:19:01.488Z,5.40
2018-12-03T07:20:01.496Z,5.45
2018-12-03T07:21:01.507Z,5.40
2018-12-03T07:22:01.519Z,5.42
2018-12-03T07:23:01.528Z,5.35
2018-12-03T07:24:01.537Z,5.40
2018-12-03T07:25:01.549Z,5.42
2018-12-03T07:26:01.556Z,5.40
2018-12-03T07:27:01.572Z,5.36
2018-12-03T07:28:01.581Z,5.33
2018-12-03T07:29:01.591Z,5.30
2018-12-03T07:30:01.604Z,5.25
2018-12-03T07:31:01.609Z,5.24
2018-12-03T07:32:01.620Z,5.22
2018-12-03T07:33:01.629Z,5.22
2018-12-03T07:34:03.413Z,5.24
2018-12-03T07:35:01.648Z,5.27
2018-12-03T07:36:01.662Z,5.24
2018-12-03T07:37:01.673Z,5.21
2018-12-03T07:38:01.686Z,5.27
2018-12-03T07:39:01.695Z,5.28
2018-12-03T07:40:01.704Z,5.27
2018-12-03T07:41:01.713Z,5.33
2018-12-03T07:42:01.722Z,5.30
2018-12-03T07:43:01.733Z,5.33
2018-12-03T07:44:01.744Z,5.33
2018-12-03T07:45:01.759Z,5.36
2018-12-03T07:46:01.764Z,5.27
2018-12-03T07:47:01.775Z,5.28
2018-12-03T07:48:01.785Z,5.21
2018-12-03T07:49:01.793Z,5.21
2018-12-03T07:50:01.805Z,5.17
2018-12-03T07:51:01.814Z,5.13
2018-12-03T07:52:01.827Z,5.21
2018-12-03T07:53:01.836Z,5.12
2018-12-03T07:54:01.844Z,4.99
2018-12-03T07:55:01.855Z,4.75
2018-12-03T07:56:01.866Z,4.63
2018-12-03T07:57:01.877Z,4.59
2018-12-03T07:58:01.889Z,4.50
2018-12-03T07:59:01.898Z,4.47
2018-12-03T08:00:01.919Z,4.52
2018-12-03T08:01:01.921Z,4.45
2018-12-03T08:02:01.934Z,4.50
2018-12-03T08:03:01.940Z,4.54
2018-12-03T08:04:02.018Z,4.50
2018-12-03T08:05:01.963Z,4.54
2018-12-03T08:06:01.974Z,4.58
2018-12-03T08:07:01.989Z,4.59
2018-12-03T08:08:01.990Z,4.48
2018-12-03T08:09:01.997Z,4.34
2018-12-03T08:10:02.013Z,4.33
2018-12-03T08:11:02.019Z,4.34
2018-12-03T08:12:02.034Z,4.36
2018-12-03T08:13:02.039Z,4.44
2018-12-03T08:14:02.048Z,4.40
2018-12-03T08:15:02.085Z,4.40
2018-12-03T08:16:02.070Z,4.34
2018-12-03T08:17:02.079Z,4.33
2018-12-03T08:18:02.088Z,4.36
2018-12-03T08:19:02.104Z,4.40
2018-12-03T08:20:02.109Z,4.36
2018-12-03T08:21:02.118Z,4.41
2018-12-03T08:22:02.127Z,4.44
2018-12-03T08:23:02.140Z,4.42
2018-12-03T08:24:02.147Z,4.37
2018-12-03T08:25:02.157Z,4.41
2018-12-03T08:26:02.166Z,4.48
2018-12-03T08:27:02.179Z,4.44
2018-12-03T08:28:02.189Z,4.54
2018-12-03T08:29:02.199Z,4.41
2018-12-03T08:30:02.208Z,4.51
2018-12-03T08:31:02.218Z,4.54
2018-12-03T08:32:02.225Z,4.54
2018-12-03T08:33:02.241Z,4.59
2018-12-03T08:34:02.244Z,4.54
2018-12-03T08:35:02.254Z,4.73
2018-12-03T08:36:02.264Z,4.70
2018-12-03T08:37:02.278Z,4.70
2018-12-03T08:38:03.548Z,4.70
2018-12-03T08:39:02.298Z,4.86
2018-12-03T08:40:02.302Z,4.84
2018-12-03T08:41:02.330Z,4.89
2018-12-03T08:42:02.323Z,4.86
2018-12-03T08:43:02.332Z,4.86
2018-12-03T08:44:02.341Z,4.88
2018-12-03T08:45:02.352Z,4.88
2018-12-03T08:46:02.363Z,4.96
2018-12-03T08:47:02.369Z,4.92
2018-12-03T08:48:02.381Z,4.97
2018-12-03T08:49:02.391Z,4.92
2018-12-03T08:50:02.404Z,4.99
2018-12-03T08:51:02.411Z,5.03
2018-12-03T08:52:02.420Z,5.04
2018-12-03T08:53:02.431Z,5.03
2018-12-03T08:54:02.439Z,5.04
2018-12-03T08:55:02.448Z,5.07
2018-12-03T08:56:02.459Z,5.06
2018-12-03T08:57:02.470Z,5.13
2018-12-03T08:58:02.483Z,5.13
2018-12-03T08:59:02.502Z,5.10
2018-12-03T09:00:02.500Z,5.21
2018-12-03T09:01:02.510Z,5.13
2018-12-03T09:02:02.518Z,5.13
2018-12-03T09:03:02.528Z,5.13
2018-12-03T09:04:02.542Z,5.12
2018-12-03T09:05:02.550Z,5.13
2018-12-03T09:06:02.558Z,5.09
2018-12-03T09:07:02.570Z,5.20
2018-12-03T09:08:02.578Z,5.22
2018-12-03T09:09:02.588Z,5.24
2018-12-03T09:10:02.601Z,5.25
2018-12-03T09:11:02.608Z,5.24
2018-12-03T09:12:02.620Z,5.27
2018-12-03T09:13:02.630Z,5.24
2018-12-03T09:14:02.638Z,5.28
2018-12-03T09:15:02.647Z,5.27
2018-12-03T09:16:02.660Z,5.20
2018-12-03T09:17:02.811Z,5.20
2018-12-03T09:18:02.676Z,5.30
2018-12-03T09:19:02.687Z,5.28
2018-12-03T09:20:02.698Z,5.25
2018-12-03T09:21:02.714Z,5.18
2018-12-03T09:22:02.718Z,5.17
2018-12-03T09:23:02.729Z,5.13
2018-12-03T09:24:02.738Z,5.06
2018-12-03T09:25:02.749Z,5.00
2018-12-03T09:26:02.758Z,5.06
2018-12-03T09:27:02.766Z,4.97
2018-12-03T09:28:02.781Z,4.99
2018-12-03T09:29:02.788Z,5.04
2018-12-03T09:30:02.799Z,4.99
2018-12-03T09:31:02.809Z,4.99
2018-12-03T09:32:02.818Z,4.99
2018-12-03T09:33:02.827Z,5.09
2018-12-03T09:34:02.838Z,5.25
2018-12-03T09:35:02.849Z,5.39
2018-12-03T09:36:02.858Z,5.43
2018-12-03T09:37:02.867Z,5.39
2018-12-03T09:38:02.881Z,5.42
2018-12-03T09:39:02.886Z,5.40
2018-12-03T09:40:02.904Z,5.35
2018-12-03T09:41:05.828Z,5.43
2018-12-03T09:42:02.922Z,5.35
2018-12-03T09:43:02.935Z,5.42
2018-12-03T09:44:02.940Z,5.51
2018-12-03T09:45:02.946Z,5.36
2018-12-03T09:46:02.956Z,5.40
2018-12-03T09:47:02.967Z,5.38
2018-12-03T09:48:02.977Z,5.39
2018-12-03T09:49:02.986Z,5.38
2018-12-03T09:50:02.999Z,5.38
2018-12-03T09:51:03.009Z,5.49
2018-12-03T09:52:03.017Z,5.61
2018-12-03T09:53:03.025Z,5.82
2018-12-03T09:54:03.036Z,5.79
2018-12-03T09:55:03.047Z,5.99
2018-12-03T09:56:03.058Z,6.04
2018-12-03T09:57:03.071Z,6.04
2018-12-03T09:58:03.079Z,6.03
2018-12-03T09:59:03.087Z,6.15
2018-12-03T10:00:03.099Z,6.22
2018-12-03T10:01:03.108Z,6.19
2018-12-03T10:02:03.120Z,6.17
2018-12-03T10:03:03.128Z,5.99
2018-12-03T10:04:03.140Z,5.83
2018-12-03T10:05:03.146Z,5.79
2018-12-03T10:06:03.160Z,5.79
2018-12-03T10:07:03.169Z,5.75
2018-12-03T10:08:03.178Z,5.79
2018-12-03T10:09:03.190Z,5.61
2018-12-03T10:10:03.201Z,5.60
2018-12-03T10:11:03.213Z,5.60
2018-12-03T10:12:03.220Z,5.39
2018-12-03T10:13:03.231Z,5.31
2018-12-03T10:14:03.239Z,5.36
2018-12-03T10:15:03.250Z,5.28
2018-12-03T10:16:03.260Z,5.25
2018-12-03T10:17:03.271Z,5.33
2018-12-03T10:18:03.281Z,5.38
2018-12-03T10:19:03.292Z,5.28
2018-12-03T10:20:03.302Z,5.36
2018-12-03T10:21:03.314Z,5.40
2018-12-03T10:22:03.322Z,5.38
2018-12-03T10:23:03.337Z,5.45
2018-12-03T10:24:03.342Z,5.54
2018-12-03T10:25:03.355Z,5.54
2018-12-03T10:26:03.364Z,5.51
2018-12-03T10:27:03.372Z,5.61
2018-12-03T10:28:03.385Z,5.60
2018-12-03T10:29:03.395Z,5.74
2018-12-03T10:30:03.404Z,5.82
2018-12-03T10:31:03.415Z,5.61
2018-12-03T10:32:03.425Z,5.76
2018-12-03T10:33:03.438Z,5.82
2018-12-03T10:34:03.447Z,5.85
2018-12-03T10:35:03.460Z,5.91
2018-12-03T10:36:03.468Z,5.99
2018-12-03T10:37:03.478Z,5.94
2018-12-03T10:38:03.487Z,5.89
2018-12-03T10:39:03.500Z,5.96
2018-12-03T10:40:03.511Z,6.03
2018-12-03T10:41:03.521Z,6.03
2018-12-03T10:42:03.531Z,6.09
2018-12-03T10:43:03.542Z,6.09
2018-12-03T10:44:03.553Z,6.09
2018-12-03T10:45:03.566Z,6.12
2018-12-03T10:46:03.571Z,6.15
2018-12-03T10:47:03.583Z,6.12
2018-12-03T10:48:03.595Z,6.08
2018-12-03T10:49:03.615Z,6.00
2018-12-03T10:50:03.615Z,6.03
2018-12-03T10:51:03.629Z,5.90
2018-12-03T10:52:03.637Z,5.81
2018-12-03T10:53:03.649Z,5.79
2018-12-03T10:54:03.662Z,5.86
2018-12-03T10:55:03.673Z,5.90
2018-12-03T10:56:03.682Z,5.89
2018-12-03T10:57:03.690Z,5.90
2018-12-03T10:58:03.702Z,5.86
2018-12-03T10:59:03.714Z,5.90
2018-12-03T11:00:03.724Z,5.93
2018-12-03T11:01:03.736Z,5.89
2018-12-03T11:02:03.745Z,5.82
2018-12-03T11:03:03.757Z,5.78
2018-12-03T11:04:03.766Z,5.67
2018-12-03T11:05:03.776Z,5.67
2018-12-03T11:06:03.787Z,5.79
2018-12-03T11:07:03.798Z,5.67
2018-12-03T11:08:03.808Z,5.74
2018-12-03T11:09:03.818Z,5.75
2018-12-03T11:10:03.828Z,5.79
2018-12-03T11:11:03.842Z,5.76
2018-12-03T11:12:03.851Z,5.82
2018-12-03T11:13:03.865Z,5.81
2018-12-03T11:14:03.870Z,5.85
2018-12-03T11:15:03.882Z,5.90
2018-12-03T11:16:03.896Z,5.99
2018-12-03T11:17:03.906Z,5.99
2018-12-03T11:18:03.914Z,5.99
2018-12-03T11:19:03.930Z,6.09
2018-12-03T11:20:03.934Z,6.03
2018-12-03T11:21:03.945Z,6.06
2018-12-03T11:22:03.955Z,6.01
2018-12-03T11:23:03.969Z,6.12
2018-12-03T11:24:03.976Z,6.08
2018-12-03T11:25:03.987Z,6.17
2018-12-03T11:26:04.002Z,6.33
2018-12-03T11:27:04.010Z,6.44
2018-12-03T11:28:04.022Z,6.66
2018-12-03T11:29:04.033Z,6.98
2018-12-03T11:30:04.045Z,7.15
2018-12-03T11:31:04.053Z,7.15
2018-12-03T11:32:04.063Z,7.27
2018-12-03T11:33:04.075Z,7.42
2018-12-03T11:34:04.084Z,7.68
2018-12-03T11:35:06.001Z,7.79
2018-12-03T11:36:04.109Z,7.98
2018-12-03T11:37:04.118Z,8.04
2018-12-03T11:38:04.130Z,7.79
2018-12-03T11:39:04.143Z,7.93
2018-12-03T11:40:04.155Z,7.83
2018-12-03T11:41:04.166Z,7.95
2018-12-03T11:42:04.174Z,8.02
2018-12-03T11:43:04.187Z,8.19
2018-12-03T11:44:04.201Z,8.22
2018-12-03T11:45:04.217Z,8.26
2018-12-03T11:46:04.222Z,8.38
2018-12-03T11:47:04.235Z,8.20
2018-12-03T11:48:04.247Z,7.58
2018-12-03T11:49:04.257Z,7.42
2018-12-03T11:50:04.271Z,6.80
2018-12-03T11:51:04.282Z,6.64
2018-12-03T11:52:04.293Z,6.44
2018-12-03T11:53:04.307Z,6.37
2018-12-03T11:54:04.317Z,6.36
2018-12-03T11:55:04.328Z,6.37
2018-12-03T11:56:04.339Z,6.36
2018-12-03T11:57:04.352Z,6.34
2018-12-03T11:58:04.363Z,6.34
2018-12-03T11:59:04.381Z,6.14
2018-12-03T12:00:04.391Z,5.91
2018-12-03T12:01:04.401Z,5.79
2018-12-03T12:02:04.411Z,5.79
2018-12-03T12:03:04.424Z,5.76
2018-12-03T12:04:04.435Z,5.81
2018-12-03T12:05:04.444Z,5.93
2018-12-03T12:06:04.457Z,5.96
2018-12-03T12:07:04.471Z,5.79
2018-12-03T12:08:04.477Z,5.83
2018-12-03T12:09:04.490Z,5.81
2018-12-03T12:10:04.503Z,5.91
2018-12-03T12:11:04.513Z,5.90
2018-12-03T12:12:04.524Z,5.99
2018-12-03T12:13:04.534Z,5.94
2018-12-03T12:14:04.546Z,6.01
2018-12-03T12:15:04.558Z,6.00
2018-12-03T12:16:04.570Z,6.03
2018-12-03T12:17:04.583Z,6.01
2018-12-03T12:18:04.593Z,6.01
2018-12-03T12:19:04.606Z,6.06
2018-12-03T12:20:04.614Z,6.01
2018-12-03T12:21:04.625Z,6.04
2018-12-03T12:22:04.638Z,6.08
2018-12-03T12:23:04.648Z,6.09
2018-12-03T12:24:04.658Z,6.21
2018-12-03T12:25:04.669Z,6.18
2018-12-03T12:26:04.682Z,6.25
2018-12-03T12:27:04.692Z,6.25
2018-12-03T12:28:04.703Z,6.38
2018-12-03T12:29:04.717Z,6.34
2018-12-03T12:30:04.726Z,6.34
2018-12-03T12:31:04.735Z,6.43
2018-12-03T12:32:04.747Z,6.59
2018-12-03T12:33:04.760Z,6.66
2018-12-03T12:34:04.773Z,6.79
2018-12-03T12:35:04.784Z,6.84
2018-12-03T12:36:04.805Z,6.88
2018-12-03T12:37:04.810Z,6.85
2018-12-03T12:38:04.814Z,6.81
2018-12-03T12:39:04.827Z,6.88
2018-12-03T12:40:04.837Z,6.80
2018-12-03T12:41:04.852Z,6.91
2018-12-03T12:42:04.859Z,6.92
2018-12-03T12:43:04.871Z,6.98
2018-12-03T12:44:04.884Z,7.21
2018-12-03T12:45:04.896Z,7.13
2018-12-03T12:46:04.921Z,7.24
2018-12-03T12:47:04.917Z,7.24
2018-12-03T12:48:04.931Z,7.24
2018-12-03T12:49:04.941Z,7.24
2018-12-03T12:50:04.951Z,7.13
2018-12-03T12:51:04.961Z,7.15
2018-12-03T12:52:04.975Z,6.98
2018-12-03T12:53:04.984Z,6.95
2018-12-03T12:54:04.997Z,6.89
2018-12-03T12:55:05.008Z,6.79
2018-12-03T12:56:05.024Z,6.81
2018-12-03T12:57:05.033Z,6.70
2018-12-03T12:58:05.043Z,6.70
2018-12-03T12:59:05.054Z,6.66
2018-12-03T13:00:05.065Z,6.73
2018-12-03T13:01:05.077Z,6.67
2018-12-03T13:02:05.085Z,6.37
2018-12-03T13:03:05.097Z,6.01
2018-12-03T13:04:05.109Z,6.03
2018-12-03T13:05:05.123Z,6.09
2018-12-03T13:06:05.130Z,6.08
2018-12-03T13:07:05.142Z,6.18
2018-12-03T13:08:05.168Z,6.21
2018-12-03T13:09:05.170Z,6.18
2018-12-03T13:10:05.177Z,6.21
2018-12-03T13:11:05.187Z,6.22
2018-12-03T13:12:05.198Z,6.25
2018-12-03T13:13:05.214Z,6.33
2018-12-03T13:14:05.222Z,6.22
2018-12-03T13:15:05.235Z,6.21
2018-12-03T13:16:05.244Z,6.19
2018-12-03T13:17:05.256Z,6.15
2018-12-03T13:18:05.265Z,6.21
2018-12-03T13:19:05.278Z,5.93